Latest Weather Observations for Ulladulla

IDN60801

Issued at 2:02 pm EST Saturday 23 May 2015 (issued every 30 minutes, with the page automatically refreshed every 10 minutes)

About weather observations | Map of weather stations | Latest weather observations for NSW | Other Formats
Station Details ID: 069138 Name: ULLADULLA AWS Lat: -35.36 Lon: 150.48 Height: 35.7 m
Data from the previous 72 hours. | See also: Recent months at Ulladulla
Date/Time
EST
Temp
°C
App
Temp
°C
Dew
Point
Rel
Hum
%
Delta-T
°C
Wind Press
QNH
hPa
Press
MSL
hPa
Rain
since 9 am
mm
Dir
 
Spd
km/h
Gust
km/h
Spd
kts
Gust
kts
23/02:00pm 14.9 10.5 7.5 61 3.6 S 20 30 11 16 1028.6 1028.5 0.0
23/01:30pm 15.1 10.4 7.9 62 3.6 S 22 30 12 16 1028.8 1028.7 0.0
23/01:00pm 15.0 10.2 7.3 60 3.8 S 22 30 12 16 1028.9 1028.8 0.0
23/12:30pm 15.1 10.4 7.9 62 3.6 S 22 32 12 17 1029.1 1029.0 0.0
23/12:00pm 15.3 11.6 7.8 61 3.7 SSW 17 30 9 16 1029.5 1029.4 0.0
23/11:30am 14.9 11.9 7.7 62 3.6 SSW 13 22 7 12 1030.1 1030.0 0.0
23/11:00am 14.8 11.3 7.1 60 3.7 SSW 15 24 8 13 1030.4 1030.3 0.0
23/10:30am 14.0 9.9 6.1 59 3.8 SSW 17 22 9 12 1030.6 1030.5 0.0
23/10:00am 14.7 11.0 6.5 58 3.9 SSW 15 26 8 14 1030.4 1030.3 0.0
23/09:30am 14.1 10.8 6.2 59 3.8 SW 13 20 7 11 1030.2 1030.1 0.0
23/09:00am 13.7 10.8 6.6 62 3.4 SW 11 17 6 9 1030.1 1030.0 13.4
23/08:30am 11.8 9.2 6.1 68 2.7 WSW 9 15 5 8 1030.0 1029.9 13.4
23/08:00am 11.6 8.5 5.5 66 2.8 SW 11 17 6 9 1029.5 1029.4 13.4
23/07:30am 11.4 8.0 5.9 69 2.6 WSW 13 19 7 10 1029.2 1029.1 13.4
23/07:00am 10.9 8.3 5.9 71 2.3 WSW 9 13 5 7 1029.0 1028.9 13.4
23/06:30am 10.5 7.7 5.3 70 2.4 WSW 9 13 5 7 1028.6 1028.5 13.4
23/06:00am 11.2 8.1 5.5 68 2.6 WSW 11 19 6 10 1028.4 1028.3 13.4
23/05:30am 10.9 7.4 5.4 69 2.5 WSW 13 19 7 10 1028.1 1028.0 13.4
23/05:00am 9.8 6.2 5.0 72 2.1 WSW 13 17 7 9 1028.0 1027.9 13.4
23/04:30am 9.5 5.8 4.7 72 2.1 WSW 13 19 7 10 1028.2 1028.1 13.4
23/04:00am 9.2 5.9 4.6 73 2.0 WSW 11 17 6 9 1028.0 1027.9 13.4
23/03:30am 9.3 6.0 4.7 73 2.1 WSW 11 20 6 11 1027.9 1027.8 13.4
23/03:00am 9.4 6.5 4.6 72 2.1 WSW 9 15 5 8 1027.8 1027.7 13.4
23/02:30am 10.4 6.3 4.5 67 2.6 SW 15 24 8 13 1027.9 1027.8 13.4
23/02:00am 10.5 5.7 4.6 67 2.6 SW 19 32 10 17 1028.1 1028.0 13.4
23/01:30am 10.3 5.9 4.7 68 2.5 SW 17 26 9 14 1028.2 1028.1 13.4
23/01:00am 10.5 5.8 5.1 69 2.4 SW 19 32 10 17 1028.2 1028.1 13.4
23/12:30am 10.7 5.8 5.3 69 2.5 SW 20 32 11 17 1028.0 1027.9 13.4
23/12:00am 10.8 6.0 5.8 71 2.3 SW 20 32 11 17 1028.1 1028.0 13.4
 
Date/Time
EST
Temp
°C
App
Temp
°C
Dew
Point
Rel
Hum
%
Delta-T
°C
Wind Press
QNH
hPa
Press
MSL
hPa
Rain
since 9 am
mm
Dir
 
Spd
km/h
Gust
km/h
Spd
kts
Gust
kts
22/11:30pm 11.4 6.4 6.5 72 2.3 SW 22 35 12 19 1027.9 1027.8 13.4
22/11:00pm 11.8 7.3 7.1 73 2.2 SW 20 32 11 17 1027.6 1027.5 13.4
22/10:30pm 12.1 7.5 8.0 76 2.0 SW 22 39 12 21 1027.2 1027.1 13.4
22/10:00pm 11.8 7.8 8.1 78 1.8 SW 19 28 10 15 1027.3 1027.2 13.4
22/09:30pm 12.0 7.6 9.0 82 1.5 SW 22 37 12 20 1027.1 1027.0 13.4
22/09:00pm 11.7 8.0 10.3 91 0.7 SW 20 32 11 17 1026.7 1026.6 13.4
22/08:30pm 11.4 7.9 10.9 97 0.3 SW 20 32 11 17 1026.6 1026.5 13.4
22/08:00pm 11.2 7.9 10.9 98 0.2 SW 19 32 10 17 1026.5 1026.4 13.2
22/07:30pm 12.0 9.4 12.0 100 0.0 SSW 17 30 9 16 1026.6 1026.5 12.6
22/07:00pm 11.8 8.5 11.5 98 0.2 SW 20 35 11 19 1026.2 1026.1 9.4
22/06:30pm 11.9 8.5 11.4 97 0.3 SW 20 33 11 18 1025.7 1025.7 8.2
22/06:00pm 12.2 9.0 11.4 95 0.4 SW 19 32 10 17 1025.4 1025.4 7.4
22/05:58pm 12.3 9.5 11.4 94 0.5 SW 17 32 9 17 1025.3 1025.3 7.2
22/05:30pm 13.8 5.0 12.2 90 0.9 S 50 74 27 40 1024.9 1024.9 7.0
22/05:28pm 13.6 4.2 11.5 87 1.1 S 52 74 28 40 1024.6 1024.6 7.0
22/05:23pm 13.3 5.3 11.0 86 1.2 S 44 74 24 40 1024.5 1024.5 7.0
22/05:22pm 13.8 6.1 11.5 86 1.2 S 43 74 23 40 1024.5 1024.5 6.8
22/05:06pm 15.0 8.8 11.4 79 1.9 S 35 56 19 30 1024.3 1024.3 6.6
22/05:00pm 15.0 8.4 11.2 78 2.0 S 37 56 20 30 1024.3 1024.3 6.6
22/04:30pm 14.4 8.7 11.2 81 1.7 SSW 32 50 17 27 1023.9 1023.9 6.6
22/04:00pm 14.9 6.7 10.5 75 2.3 S 44 67 24 36 1023.4 1023.4 6.6
22/03:43pm 14.8 5.3 11.2 79 1.9 S 52 70 28 38 1023.2 1023.2 6.6
22/03:30pm 14.8 6.6 11.8 82 1.6 S 46 65 25 35 1023.1 1023.1 6.6
22/03:11pm 14.1 5.3 10.9 81 1.7 S 48 67 26 36 1022.9 1022.9 6.6
22/03:00pm 14.4 5.8 11.6 83 1.5 S 48 63 26 34 1022.9 1022.9 6.6
22/02:30pm 13.6 3.4 11.3 86 1.2 S 56 76 30 41 1022.8 1022.8 6.4
22/02:04pm 13.5 4.8 12.4 93 0.6 S 50 69 27 37 1022.6 1022.6 6.4
22/02:00pm 13.6 3.8 12.7 94 0.5 S 56 70 30 38 1022.6 1022.6 6.4
22/01:39pm 12.7 6.5 12.7 100 0.0 SSW 37 70 20 38 1022.6 1022.6 6.2
22/01:37pm 13.0 7.9 13.0 100 0.0 SSW 32 57 17 31 1022.8 1022.8 6.2
22/01:30pm 12.6 7.6 12.3 98 0.2 SSW 30 43 16 23 1022.8 1022.8 6.0
22/01:00pm 12.7 7.3 12.2 97 0.3 SSW 32 46 17 25 1022.7 1022.7 5.4
22/12:30pm 12.7 6.0 12.2 97 0.3 SSW 39 61 21 33 1022.6 1022.6 4.8
22/12:00pm 12.4 6.9 11.9 97 0.3 SSW 32 54 17 29 1022.8 1022.8 4.0
22/11:43am 12.8 7.3 11.9 94 0.5 SSW 32 52 17 28 1022.5 1022.5 1.4
22/11:30am 12.7 6.6 11.6 93 0.6 SSW 35 52 19 28 1022.5 1022.5 1.4
22/11:22am 13.2 8.7 12.6 96 0.3 SSW 28 48 15 26 1022.5 1022.5 1.4
22/11:00am 13.3 7.9 11.0 86 1.2 SSW 30 46 16 25 1022.6 1022.6 0.0
22/10:30am 13.9 7.4 10.3 79 1.9 SSW 35 56 19 30 1022.2 1022.2 0.0
22/10:19am 13.9 8.0 10.3 79 1.9 SSW 32 52 17 28 1022.1 1022.1 0.0
22/10:00am 13.4 7.5 10.6 83 1.5 SSW 32 48 17 26 1022.0 1022.0 0.0
22/09:30am 13.5 7.8 11.0 85 1.3 SSW 32 59 17 32 1021.3 1021.3 0.0
22/09:14am 13.6 8.0 11.5 87 1.1 SSW 32 50 17 27 1021.4 1021.4 0.0
22/09:00am 15.2 7.1 12.0 81 1.7 S 46 74 25 40 1021.1 1021.1 40.2
22/08:30am 14.9 6.8 13.1 89 1.0 S 48 69 26 37 1020.4 1020.4 40.2
22/08:00am 14.9 7.3 13.6 92 0.7 S 46 67 25 36 1020.0 1020.0 39.6
22/07:30am 15.6 8.8 13.1 85 1.4 SSE 41 61 22 33 1019.3 1019.3 39.6
22/07:09am 15.3 8.8 14.0 92 0.7 SSE 41 61 22 33 1018.9 1018.9 39.6
22/07:00am 14.8 8.7 14.0 95 0.4 SSE 39 57 21 31 1018.9 1018.9 39.6
22/06:42am 14.8 9.0 13.8 94 0.6 SSE 37 63 20 34 1018.4 1018.4 35.2
22/06:30am 14.0 10.3 14.0 100 0.0 S 26 46 14 25 1018.4 1018.4 34.4
22/06:24am 13.9 11.0 13.9 100 0.0 SSW 22 46 12 25 1018.6 1018.6 34.0
22/06:00am 12.7 10.7 12.7 100 0.0 SW 15 28 8 15 1018.2 1018.2 32.6
22/05:30am 12.2 10.0 12.2 100 0.0 SW 15 24 8 13 1018.5 1018.5 28.4
22/05:00am 12.5 9.1 12.5 100 0.0 SW 22 35 12 19 1018.4 1018.4 23.0
22/04:30am 12.6 8.5 12.6 100 0.0 SSW 26 39 14 21 1018.1 1018.1 19.0
22/04:19am 12.7 8.2 12.7 100 0.0 SW 28 48 15 26 1018.0 1018.0 18.6
22/04:00am 12.5 8.3 12.3 99 0.1 SW 26 41 14 22 1017.8 1017.8 18.0
22/03:32am 13.1 8.2 12.5 96 0.3 SSW 30 50 16 27 1017.6 1017.6 17.2
22/03:30am 13.4 8.2 12.9 97 0.3 SSW 32 50 17 27 1017.6 1017.6 17.0
22/03:15am 13.4 8.7 13.2 99 0.1 SSW 30 50 16 27 1017.6 1017.6 16.0
22/03:00am 12.3 9.2 12.3 100 0.0 SW 20 35 11 19 1018.1 1018.1 15.2
22/02:30am 12.2 8.7 12.2 100 0.0 SW 22 41 12 22 1018.4 1018.4 12.6
22/02:00am 11.9 8.7 11.9 100 0.0 SW 20 35 11 19 1018.1 1018.1 10.4
22/01:30am 12.2 9.0 12.0 99 0.1 SW 20 35 11 19 1018.5 1018.5 8.6
22/01:00am 12.7 8.4 10.9 89 0.9 SW 24 35 13 19 1018.3 1018.3 6.6
22/12:30am 12.8 9.1 11.5 92 0.7 SW 22 35 12 19 1018.4 1018.4 6.2
22/12:00am 13.2 9.3 10.9 86 1.2 SW 22 37 12 20 1018.7 1018.7 6.2
 
Date/Time
EST
Temp
°C
App
Temp
°C
Dew
Point
Rel
Hum
%
Delta-T
°C
Wind Press
QNH
hPa
Press
MSL
hPa
Rain
since 9 am
mm
Dir
 
Spd
km/h
Gust
km/h
Spd
kts
Gust
kts
21/11:30pm 13.2 9.2 10.4 83 1.5 SW 22 32 12 17 1018.6 1018.6 6.0
21/11:00pm 13.4 9.9 10.8 84 1.4 SW 20 33 11 18 1018.9 1018.9 6.0
21/10:30pm 13.6 9.9 11.5 87 1.1 SW 22 33 12 18 1019.0 1019.0 6.0
21/10:00pm 13.6 10.1 12.2 91 0.8 SW 22 35 12 19 1018.6 1018.6 6.0
21/09:30pm 14.2 9.6 12.2 88 1.1 SSW 28 44 15 24 1018.8 1018.8 6.0
21/09:00pm 13.6 10.0 11.8 89 1.0 SW 22 37 12 20 1018.6 1018.6 6.0
21/08:30pm 13.3 10.8 12.2 93 0.6 SW 17 26 9 14 1018.8 1018.8 6.0
21/08:00pm 13.4 10.6 12.6 95 0.4 SW 19 32 10 17 1018.9 1018.9 6.0
21/07:30pm 13.9 11.1 12.5 91 0.8 SW 19 26 10 14 1018.9 1018.9 4.8
21/07:00pm 14.8 12.7 12.5 86 1.3 SW 15 28 8 15 1019.0 1019.0 4.6
21/06:30pm 16.6 11.6 13.5 82 1.7 S 32 43 17 23 1018.8 1018.8 4.6
21/06:00pm 15.9 10.7 12.8 82 1.7 S 32 46 17 25 1018.6 1018.6 4.6
21/05:30pm 16.6 11.8 12.9 79 2.1 S 30 43 16 23 1018.3 1018.3 4.6
21/05:00pm 16.4 12.0 12.9 80 1.9 S 28 43 15 23 1018.2 1018.2 4.6
21/04:30pm 16.3 12.0 13.2 82 1.7 S 28 39 15 21 1018.2 1018.2 4.6
21/04:00pm 16.1 10.6 12.5 79 2.0 S 33 41 18 22 1018.2 1018.2 4.6
21/03:30pm 15.9 10.3 13.4 85 1.4 S 35 46 19 25 1017.9 1017.9 4.6
21/03:00pm 15.6 11.9 14.0 90 0.9 S 26 35 14 19 1017.8 1017.8 4.4
21/02:30pm 16.9 13.0 13.2 79 2.1 S 26 39 14 21 1017.8 1017.8 0.0
21/02:00pm 18.0 15.2 13.1 73 2.8 SSW 20 30 11 16 1017.7 1017.7 0.0
21/01:30pm 17.9 14.2 12.6 71 3.0 SSW 24 33 13 18 1017.8 1017.8 0.0
21/01:00pm 18.4 14.8 11.9 66 3.6 S 22 32 12 17 1018.2 1018.2 0.0
21/12:30pm 19.0 16.0 11.8 63 4.0 SSW 19 28 10 15 1018.4 1018.4 0.0
21/12:00pm 18.3 14.9 11.1 63 3.9 SSW 20 33 11 18 1018.6 1018.6 0.0
21/11:30am 18.1 15.4 10.2 60 4.2 SSW 15 24 8 13 1018.9 1018.9 0.0
21/11:00am 18.2 15.2 9.3 56 4.7 SSW 15 20 8 11 1019.2 1019.2 0.0
21/10:30am 18.2 14.8 9.0 55 4.8 SSW 17 26 9 14 1019.0 1019.0 0.0
21/10:00am 17.2 13.9 8.1 55 4.6 SSW 15 24 8 13 1019.0 1019.0 0.0
21/09:30am 17.5 14.5 9.2 58 4.3 SW 15 20 8 11 1018.9 1018.9 0.0
21/09:00am 16.1 13.4 8.8 62 3.7 SW 13 22 7 12 1018.7 1018.7 0.0
21/08:30am 16.1 13.4 9.1 63 3.6 SW 13 20 7 11 1018.5 1018.5 0.0
21/08:00am 15.1 12.0 9.0 67 3.1 SW 15 22 8 12 1018.2 1018.2 0.0
21/07:30am 15.3 12.9 9.9 70 2.8 SW 13 19 7 10 1017.9 1017.9 0.0
21/07:00am 15.4 13.0 10.2 71 2.7 SW 13 19 7 10 1017.5 1017.5 0.0
21/06:30am 15.0 12.8 9.4 69 2.9 WSW 11 19 6 10 1017.1 1017.1 0.0
21/06:00am 15.2 12.9 9.1 67 3.1 WSW 11 19 6 10 1016.8 1016.8 0.0
21/05:30am 14.9 12.4 8.2 64 3.4 WSW 11 19 6 10 1016.4 1016.4 0.0
21/05:00am 14.8 12.3 8.3 65 3.3 WSW 11 19 6 10 1016.1 1016.1 0.0
21/04:30am 15.1 12.7 8.6 65 3.3 WSW 11 17 6 9 1015.8 1015.8 0.0
21/04:00am 15.6 13.6 8.8 64 3.5 W 9 17 5 9 1015.8 1015.8 0.0
21/03:30am 15.9 13.6 9.1 64 3.5 W 11 19 6 10 1015.7 1015.7 0.0
21/03:00am 16.0 13.8 9.4 65 3.4 WNW 11 19 6 10 1015.7 1015.7 0.0
21/02:30am 16.2 13.7 9.6 65 3.4 WNW 13 20 7 11 1015.6 1015.6 0.0
21/02:00am 16.5 13.7 9.9 65 3.5 WNW 15 26 8 14 1015.4 1015.4 0.0
21/01:30am 16.3 15.1 10.4 68 3.1 WNW 7 15 4 8 1015.4 1015.4 0.0
21/01:00am 16.5 15.0 10.4 67 3.2 WNW 9 15 5 8 1015.3 1015.3 0.0
21/12:30am 16.5 15.3 10.4 67 3.2 NW 7 13 4 7 1015.3 1015.3 0.0
21/12:00am 16.6 15.6 10.9 69 3.1 NW 7 11 4 6 1015.5 1015.5 0.0
 
Date/Time
EST
Temp
°C
App
Temp
°C
Dew
Point
Rel
Hum
%
Delta-T
°C
Wind Press
QNH
hPa
Press
MSL
hPa
Rain
since 9 am
mm
Dir
 
Spd
km/h
Gust
km/h
Spd
kts
Gust
kts
20/11:30pm 16.6 15.6 11.1 70 3.0 NW 7 13 4 7 1015.7 1015.7 0.0
20/11:00pm 16.8 15.5 11.3 70 3.0 NNW 9 13 5 7 1015.7 1015.7 0.0
20/10:30pm 17.2 16.2 11.0 67 3.3 NNW 7 9 4 5 1015.5 1015.5 0.0
20/10:00pm 17.4 16.6 11.0 66 3.4 NNW 6 9 3 5 1015.7 1015.7 0.0
20/09:30pm 17.9 16.9 11.0 64 3.7 NW 7 9 4 5 1015.6 1015.6 0.0
20/09:00pm 18.0 17.0 10.9 63 3.8 NW 7 9 4 5 1015.4 1015.4 0.0
20/08:30pm 17.5 16.8 11.3 67 3.4 NW 6 9 3 5 1015.4 1015.4 0.0
20/08:00pm 17.2 16.4 11.2 68 3.2 NW 6 7 3 4 1015.3 1015.3 0.0
20/07:30pm 17.7 16.8 10.8 64 3.7 NW 6 9 3 5 1014.8 1014.8 0.0
20/07:00pm 17.9 17.0 10.8 63 3.8 NW 6 9 3 5 1014.5 1014.5 0.0
20/06:30pm 17.3 16.5 11.1 67 3.3 NNW 6 7 3 4 1014.1 1014.1 0.0
20/06:00pm 17.7 17.0 11.3 66 3.5 NW 6 7 3 4 1013.7 1013.7 0.0
20/05:30pm 17.5 17.2 12.8 74 2.6 NNW 6 7 3 4 1013.3 1013.3 0.0
20/05:00pm 17.5 17.5 12.4 72 2.8 N 4 6 2 3 1013.2 1013.2 0.0
20/04:30pm 18.6 18.3 12.6 68 3.4 N 6 7 3 4 1013.1 1013.1 0.0
20/04:00pm 19.1 19.0 13.3 69 3.3 N 6 7 3 4 1013.1 1013.1 0.0
20/03:30pm 19.6 19.6 13.5 68 3.5 N 6 7 3 4 1012.8 1012.8 0.0
20/03:00pm 21.2 21.1 12.1 56 5.1 NNW 4 7 2 4 1012.9 1012.9 0.0
20/02:30pm 20.8 20.5 11.4 55 5.2 NNW 4 6 2 3 1012.8 1012.8 0.0

Other Formats:

Comma delimited format used in spreadsheet applications
http://www.bom.gov.au/fwo/IDN60801/IDN60801.94938.axf

JavaScript Object Notation format (JSON) in row-major order
http://www.bom.gov.au/fwo/IDN60801/IDN60801.94938.json